Time;durP1;ratioP1;P1;durP2;ratioP2;P2;SDS_P1;SDS_P2;PMS_P1;PMS_P2;Temp;Humidity;BMP_temperature;BMP_pressure;BME280_temperature;BME280_humidity;BME280_pressure;Samples;Min_cycle;Max_cycle;Signal;HPM_P1;HPM_P2
2021/07/18 00:00:30;;;;;;;9.18;2.53;;;;;;;;;;3583531;40;20048;-59
2021/07/18 00:02:56;;;;;;;3.42;1.70;;;;;;;;;;3580893;40;20044;-59
2021/07/18 00:05:21;;;;;;;4.07;1.80;;;;;;;;;;3575706;40;20041;-59
2021/07/18 00:07:47;;;;;;;4.80;2.17;;;;;;;;;;3583153;40;20033;-59
2021/07/18 00:10:13;;;;;;;6.65;1.65;;;;;;;;;;3580422;40;20168;-59
2021/07/18 00:12:39;;;;;;;4.18;2.40;;;;;;;;;;3582471;40;20482;-59
2021/07/18 00:15:06;;;;;;;4.75;2.00;;;;;;;;;;3582539;40;20167;-59
2021/07/18 00:17:37;;;;;;;4.50;2.20;;;;;;;;;;3583108;40;20033;-60
2021/07/18 00:20:04;;;;;;;5.13;2.20;;;;;;;;;;3581259;40;20482;-59
2021/07/18 00:22:30;;;;;;;3.72;2.25;;;;;;;;;;3583304;40;20272;-59
2021/07/18 00:24:55;;;;;;;7.05;2.50;;;;;;;;;;3581033;40;20138;-59
2021/07/18 00:27:21;;;;;;;5.68;2.95;;;;;;;;;;3583553;40;20040;-59
2021/07/18 00:29:46;;;;;;;4.72;2.78;;;;;;;;;;3583185;40;20118;-59
2021/07/18 00:32:12;;;;;;;5.00;2.72;;;;;;;;;;3582841;40;20128;-59
2021/07/18 00:34:37;;;;;;;5.70;2.75;;;;;;;;;;3582308;40;20044;-60
2021/07/18 00:37:03;;;;;;;5.55;2.90;;;;;;;;;;3582629;40;20372;-59
2021/07/18 00:39:28;;;;;;;8.02;3.00;;;;;;;;;;3583249;40;20336;-59
2021/07/18 00:41:54;;;;;;;5.97;3.05;;;;;;;;;;3583614;40;20349;-60
2021/07/18 00:44:19;;;;;;;5.45;3.67;;;;;;;;;;3583447;40;20044;-59
2021/07/18 00:46:44;;;;;;;6.45;3.67;;;;;;;;;;3581986;40;20096;-59
2021/07/18 00:49:10;;;;;;;7.55;4.60;;;;;;;;;;3583358;40;20044;-59
2021/07/18 00:51:35;;;;;;;7.75;4.15;;;;;;;;;;3583989;40;20049;-59
2021/07/18 00:54:01;;;;;;;5.70;2.72;;;;;;;;;;3574606;40;20172;-60
2021/07/18 00:56:27;;;;;;;4.28;2.28;;;;;;;;;;3581582;40;20439;-60
2021/07/18 00:58:54;;;;;;;11.93;2.70;;;;;;;;;;3583461;40;20088;-60
2021/07/18 01:01:21;;;;;;;6.63;2.10;;;;;;;;;;3584463;40;20052;-60
2021/07/18 01:03:47;;;;;;;5.55;2.78;;;;;;;;;;3583784;40;20021;-60
2021/07/18 01:06:12;;;;;;;12.05;3.78;;;;;;;;;;3580719;40;20052;-60
2021/07/18 01:08:38;;;;;;;7.78;2.72;;;;;;;;;;3580352;40;20126;-60
2021/07/18 01:11:03;;;;;;;5.68;3.30;;;;;;;;;;3583905;40;20041;-60
2021/07/18 01:13:29;;;;;;;9.43;3.25;;;;;;;;;;3582211;40;20041;-60
2021/07/18 01:15:55;;;;;;;10.00;3.10;;;;;;;;;;3581578;40;20024;-60
2021/07/18 01:18:20;;;;;;;5.35;3.10;;;;;;;;;;3581969;40;20048;-60
2021/07/18 01:20:47;;;;;;;9.38;2.83;;;;;;;;;;3581551;40;20057;-60
2021/07/18 01:23:12;;;;;;;11.77;2.97;;;;;;;;;;3582787;40;20387;-60
2021/07/18 01:25:38;;;;;;;7.82;2.67;;;;;;;;;;3583158;40;20053;-60
2021/07/18 01:28:09;;;;;;;14.73;3.03;;;;;;;;;;3581976;40;20048;-60
2021/07/18 01:30:35;;;;;;;8.15;3.25;;;;;;;;;;3580625;40;20049;-60
2021/07/18 01:33:01;;;;;;;5.80;2.92;;;;;;;;;;3582516;40;20037;-60
2021/07/18 01:35:27;;;;;;;8.80;2.70;;;;;;;;;;3582552;40;20122;-60
2021/07/18 01:37:54;;;;;;;6.47;2.60;;;;;;;;;;3580953;40;20048;-60
2021/07/18 01:40:20;;;;;;;6.55;2.88;;;;;;;;;;3580242;40;20040;-60
2021/07/18 01:42:45;;;;;;;6.43;3.40;;;;;;;;;;3581524;40;20048;-60
2021/07/18 01:45:11;;;;;;;5.40;3.30;;;;;;;;;;3580678;40;20045;-60
2021/07/18 01:47:36;;;;;;;12.75;3.10;;;;;;;;;;3582466;40;20033;-60
2021/07/18 01:50:06;;;;;;;5.68;3.20;;;;;;;;;;3582883;40;20559;-60
2021/07/18 01:52:31;;;;;;;5.63;3.25;;;;;;;;;;3580571;40;20039;-60
2021/07/18 01:54:57;;;;;;;5.15;2.78;;;;;;;;;;3583175;40;20041;-60
2021/07/18 01:57:23;;;;;;;4.45;3.00;;;;;;;;;;3583655;40;20118;-60
2021/07/18 01:59:48;;;;;;;8.40;3.17;;;;;;;;;;3583767;40;20025;-60
2021/07/18 02:02:14;;;;;;;5.78;3.05;;;;;;;;;;3582493;40;20454;-60
2021/07/18 02:04:40;;;;;;;6.70;2.95;;;;;;;;;;3581661;40;20065;-60
2021/07/18 02:07:06;;;;;;;6.45;2.88;;;;;;;;;;3580387;40;20029;-60
2021/07/18 02:09:37;;;;;;;9.32;3.67;;;;;;;;;;3582795;40;20072;-60
2021/07/18 02:12:06;;;;;;;12.00;2.88;;;;;;;;;;3579913;40;20027;-60
2021/07/18 02:14:32;;;;;;;4.53;2.40;;;;;;;;;;3582700;40;20470;-60
2021/07/18 02:16:58;;;;;;;5.75;2.70;;;;;;;;;;3579326;40;20051;-60
2021/07/18 02:19:28;;;;;;;9.43;3.05;;;;;;;;;;3582470;40;20075;-60
2021/07/18 02:21:53;;;;;;;7.68;3.00;;;;;;;;;;3583235;40;20033;-60
2021/07/18 02:24:19;;;;;;;4.28;2.70;;;;;;;;;;3582337;40;20036;-60
2021/07/18 02:26:44;;;;;;;6.55;3.13;;;;;;;;;;3581212;40;20047;-60
2021/07/18 02:29:10;;;;;;;7.22;2.70;;;;;;;;;;3583014;40;20075;-60
2021/07/18 02:31:35;;;;;;;6.22;3.22;;;;;;;;;;3582471;40;20041;-60
2021/07/18 02:34:01;;;;;;;5.07;2.80;;;;;;;;;;3580836;40;20036;-60
2021/07/18 02:36:26;;;;;;;10.23;2.72;;;;;;;;;;3580856;40;20358;-60
2021/07/18 02:38:54;;;;;;;6.63;2.97;;;;;;;;;;3584088;40;20043;-60
2021/07/18 02:41:20;;;;;;;5.68;2.90;;;;;;;;;;3583079;40;20040;-60
2021/07/18 02:43:45;;;;;;;6.10;2.88;;;;;;;;;;3573166;40;20162;-60
2021/07/18 02:46:11;;;;;;;5.25;2.78;;;;;;;;;;3581754;40;20508;-60
2021/07/18 02:48:37;;;;;;;5.82;2.53;;;;;;;;;;3582001;40;20040;-60
2021/07/18 02:51:04;;;;;;;11.65;3.17;;;;;;;;;;3580121;40;20065;-60
2021/07/18 02:53:30;;;;;;;9.05;2.70;;;;;;;;;;3581050;40;20044;-60
2021/07/18 02:55:55;;;;;;;7.28;3.13;;;;;;;;;;3581895;40;20045;-60
2021/07/18 02:58:21;;;;;;;4.40;2.30;;;;;;;;;;3580321;40;20122;-60
2021/07/18 03:00:46;;;;;;;8.80;2.20;;;;;;;;;;3582796;40;20045;-60
2021/07/18 03:03:12;;;;;;;7.07;2.72;;;;;;;;;;3582812;40;20619;-60
2021/07/18 03:05:37;;;;;;;6.85;2.40;;;;;;;;;;3581126;40;20040;-60
2021/07/18 03:08:03;;;;;;;6.70;2.35;;;;;;;;;;3581249;40;20052;-60
2021/07/18 03:10:28;;;;;;;5.15;2.60;;;;;;;;;;3581674;40;20044;-60
2021/07/18 03:12:54;;;;;;;8.98;3.00;;;;;;;;;;3583417;40;20040;-60
2021/07/18 03:15:20;;;;;;;3.80;2.15;;;;;;;;;;3573729;40;20123;-60
2021/07/18 03:17:46;;;;;;;5.40;2.58;;;;;;;;;;3581701;40;20045;-60
2021/07/18 03:20:13;;;;;;;4.28;2.70;;;;;;;;;;3581006;40;20732;-60
2021/07/18 03:22:40;;;;;;;4.18;2.53;;;;;;;;;;3580494;40;20044;-60
2021/07/18 03:25:07;;;;;;;5.72;2.90;;;;;;;;;;3582530;40;20053;-60
2021/07/18 03:27:33;;;;;;;5.05;2.60;;;;;;;;;;3581866;40;20049;-60
2021/07/18 03:29:59;;;;;;;6.95;2.45;;;;;;;;;;3582424;40;20047;-60
2021/07/18 03:32:24;;;;;;;5.57;2.47;;;;;;;;;;3580954;40;20041;-60
2021/07/18 03:34:50;;;;;;;4.95;2.60;;;;;;;;;;3582362;40;20040;-60
2021/07/18 03:37:16;;;;;;;7.45;2.40;;;;;;;;;;3580805;40;20033;-61
2021/07/18 03:39:42;;;;;;;6.80;3.03;;;;;;;;;;3580482;40;20052;-60
2021/07/18 03:42:07;;;;;;;6.93;2.85;;;;;;;;;;3581166;40;20367;-60
2021/07/18 03:44:33;;;;;;;9.90;2.83;;;;;;;;;;3585028;40;20089;-60
2021/07/18 03:46:58;;;;;;;4.88;2.58;;;;;;;;;;3574898;40;20068;-60
2021/07/18 03:49:24;;;;;;;5.90;2.92;;;;;;;;;;3582803;40;20464;-60
2021/07/18 03:51:49;;;;;;;5.70;2.47;;;;;;;;;;3583531;40;20040;-60
2021/07/18 03:54:15;;;;;;;6.57;2.28;;;;;;;;;;3584228;40;20041;-60
2021/07/18 03:56:40;;;;;;;5.32;2.63;;;;;;;;;;3583204;40;20072;-61
2021/07/18 03:59:06;;;;;;;4.13;2.17;;;;;;;;;;3583248;40;20086;-60
2021/07/18 04:01:31;;;;;;;3.95;2.58;;;;;;;;;;3582087;40;20128;-61
2021/07/18 04:03:57;;;;;;;6.70;2.85;;;;;;;;;;3581385;40;20045;-60
2021/07/18 04:06:22;;;;;;;4.88;2.80;;;;;;;;;;3582643;40;20047;-60
2021/07/18 04:08:48;;;;;;;4.43;2.65;;;;;;;;;;3583192;40;20487;-60
2021/07/18 04:11:13;;;;;;;4.55;2.38;;;;;;;;;;3582563;40;20045;-61
2021/07/18 04:13:39;;;;;;;4.68;2.60;;;;;;;;;;3581978;40;20043;-60
2021/07/18 04:16:06;;;;;;;4.75;2.40;;;;;;;;;;3581750;40;20028;-60
2021/07/18 04:18:32;;;;;;;6.60;2.58;;;;;;;;;;3582865;40;20052;-60
2021/07/18 04:20:58;;;;;;;6.25;2.47;;;;;;;;;;3584113;40;20037;-60
2021/07/18 04:23:24;;;;;;;5.28;2.72;;;;;;;;;;3581260;40;20049;-60
2021/07/18 04:25:49;;;;;;;5.47;2.83;;;;;;;;;;3581091;40;20041;-60
2021/07/18 04:28:15;;;;;;;7.35;3.10;;;;;;;;;;3582079;40;20037;-61
2021/07/18 04:30:41;;;;;;;6.22;2.92;;;;;;;;;;3584148;40;20056;-58
2021/07/18 04:33:07;;;;;;;7.15;3.67;;;;;;;;;;3584989;40;20372;-59
2021/07/18 04:35:32;;;;;;;10.98;2.70;;;;;;;;;;3576014;40;20369;-59
2021/07/18 04:37:58;;;;;;;3.85;2.50;;;;;;;;;;3582653;40;20036;-59
2021/07/18 04:40:26;;;;;;;5.70;2.80;;;;;;;;;;3583015;40;20048;-59
2021/07/18 04:42:51;;;;;;;5.07;2.47;;;;;;;;;;3582919;40;20522;-59
2021/07/18 04:45:17;;;;;;;4.80;2.80;;;;;;;;;;3582097;40;20099;-59
2021/07/18 04:47:50;;;;;;;4.45;2.58;;;;;;;;;;3582871;40;20133;-59
2021/07/18 04:50:18;;;;;;;8.32;2.50;;;;;;;;;;3581838;40;20339;-59
2021/07/18 04:52:44;;;;;;;4.80;2.50;;;;;;;;;;3582978;40;20039;-59
2021/07/18 04:55:11;;;;;;;4.65;2.40;;;;;;;;;;3584322;40;20036;-59
2021/07/18 04:57:37;;;;;;;7.07;2.55;;;;;;;;;;3582556;40;20104;-59
2021/07/18 05:00:09;;;;;;;5.22;2.60;;;;;;;;;;3584300;40;20037;-59
2021/07/18 05:02:36;;;;;;;5.70;2.78;;;;;;;;;;3583282;40;20029;-60
2021/07/18 05:05:01;;;;;;;6.22;2.83;;;;;;;;;;3583867;40;20041;-59
2021/07/18 05:07:27;;;;;;;4.32;2.50;;;;;;;;;;3568247;40;20449;-59
2021/07/18 05:09:52;;;;;;;6.15;3.75;;;;;;;;;;3573515;40;20033;-59
2021/07/18 05:12:18;;;;;;;6.25;3.28;;;;;;;;;;3581405;40;20039;-59
2021/07/18 05:14:45;;;;;;;6.50;2.88;;;;;;;;;;3576865;40;20043;-60
2021/07/18 05:17:14;;;;;;;6.18;2.58;;;;;;;;;;3583590;40;20051;-59
2021/07/18 05:19:40;;;;;;;5.25;2.80;;;;;;;;;;3584049;40;20251;-60
2021/07/18 05:22:06;;;;;;;6.72;2.80;;;;;;;;;;3583184;40;20047;-60
2021/07/18 05:24:33;;;;;;;7.55;2.80;;;;;;;;;;3584305;40;20041;-60
2021/07/18 05:26:59;;;;;;;5.80;2.58;;;;;;;;;;3581355;40;20380;-60
2021/07/18 05:29:24;;;;;;;15.75;3.22;;;;;;;;;;3582086;40;20122;-59
2021/07/18 05:31:50;;;;;;;4.25;2.33;;;;;;;;;;3579984;40;20032;-59
2021/07/18 05:34:16;;;;;;;5.85;2.65;;;;;;;;;;3581085;40;20041;-59
2021/07/18 05:36:41;;;;;;;7.93;3.35;;;;;;;;;;3581203;40;20041;-59
2021/07/18 05:39:07;;;;;;;3.85;2.60;;;;;;;;;;3582208;40;20033;-59
2021/07/18 05:41:32;;;;;;;5.05;2.60;;;;;;;;;;3581949;40;20435;-59
2021/07/18 05:43:57;;;;;;;7.85;2.78;;;;;;;;;;3583318;40;20320;-59
2021/07/18 05:46:23;;;;;;;10.35;2.95;;;;;;;;;;3581951;40;20040;-59
2021/07/18 05:48:48;;;;;;;5.07;2.50;;;;;;;;;;3581845;40;20038;-59
2021/07/18 05:51:14;;;;;;;3.67;2.30;;;;;;;;;;3582379;40;20044;-59
2021/07/18 05:53:39;;;;;;;4.55;3.05;;;;;;;;;;3573720;40;20029;-59
2021/07/18 05:56:05;;;;;;;10.02;2.63;;;;;;;;;;3580582;40;20297;-60
2021/07/18 05:58:30;;;;;;;6.35;2.45;;;;;;;;;;3583269;40;20439;-60
2021/07/18 06:00:56;;;;;;;3.38;2.22;;;;;;;;;;3583397;40;20284;-60
2021/07/18 06:03:21;;;;;;;4.88;2.33;;;;;;;;;;3582215;40;20084;-60
2021/07/18 06:05:47;;;;;;;4.72;2.50;;;;;;;;;;3582741;40;20047;-60
2021/07/18 06:08:12;;;;;;;5.68;2.67;;;;;;;;;;3582652;40;20052;-60
2021/07/18 06:10:38;;;;;;;4.68;2.60;;;;;;;;;;3580865;40;20048;-60
2021/07/18 06:13:03;;;;;;;6.00;2.30;;;;;;;;;;3581329;40;20424;-60
2021/07/18 06:15:29;;;;;;;5.70;1.95;;;;;;;;;;3583199;40;20364;-60
2021/07/18 06:17:54;;;;;;;6.25;2.28;;;;;;;;;;3583946;40;20254;-60
2021/07/18 06:20:20;;;;;;;7.90;1.98;;;;;;;;;;3582044;40;20065;-60
2021/07/18 06:22:46;;;;;;;3.17;1.80;;;;;;;;;;3583679;40;20036;-60
2021/07/18 06:25:12;;;;;;;4.95;2.10;;;;;;;;;;3582194;40;20045;-61
2021/07/18 06:27:41;;;;;;;3.75;1.67;;;;;;;;;;3583646;40;20276;-60
2021/07/18 06:30:08;;;;;;;3.92;1.75;;;;;;;;;;3581673;40;20360;-60
2021/07/18 06:32:34;;;;;;;5.38;1.80;;;;;;;;;;3575706;40;20040;-58
2021/07/18 06:35:00;;;;;;;4.78;2.10;;;;;;;;;;3580681;40;20048;-60
2021/07/18 06:37:25;;;;;;;4.32;1.58;;;;;;;;;;3580765;40;20044;-60
2021/07/18 06:39:51;;;;;;;6.97;1.92;;;;;;;;;;3582177;40;20422;-60
2021/07/18 06:42:18;;;;;;;3.75;1.65;;;;;;;;;;3583320;40;20437;-60
2021/07/18 06:44:43;;;;;;;3.67;1.50;;;;;;;;;;3581877;40;20158;-60
2021/07/18 06:47:08;;;;;;;3.72;1.88;;;;;;;;;;3581776;40;20052;-59
2021/07/18 06:49:35;;;;;;;3.10;1.50;;;;;;;;;;3582267;40;20084;-59
2021/07/18 06:52:00;;;;;;;4.05;1.77;;;;;;;;;;3583053;40;20029;-59
2021/07/18 06:54:25;;;;;;;4.15;1.58;;;;;;;;;;3582375;40;20052;-59
2021/07/18 06:56:51;;;;;;;9.07;1.90;;;;;;;;;;3582111;40;20033;-59
2021/07/18 06:59:16;;;;;;;4.72;1.88;;;;;;;;;;3578923;40;20064;-59
2021/07/18 07:01:42;;;;;;;3.15;1.52;;;;;;;;;;3579956;40;20032;-59
2021/07/18 07:04:07;;;;;;;6.18;1.77;;;;;;;;;;3573475;40;20045;-59
2021/07/18 07:06:33;;;;;;;3.40;1.63;;;;;;;;;;3572764;40;20373;-59
2021/07/18 07:08:59;;;;;;;3.65;1.50;;;;;;;;;;3581035;40;20047;-59
2021/07/18 07:11:24;;;;;;;3.75;1.58;;;;;;;;;;3582371;40;20531;-60
2021/07/18 07:13:50;;;;;;;3.53;1.50;;;;;;;;;;3581706;40;20363;-58
2021/07/18 07:16:16;;;;;;;4.38;1.60;;;;;;;;;;3581946;40;20033;-58
2021/07/18 07:18:42;;;;;;;3.35;1.65;;;;;;;;;;3573166;40;20048;-58
2021/07/18 07:21:09;;;;;;;3.40;1.73;;;;;;;;;;3581033;40;20138;-58
2021/07/18 07:23:37;;;;;;;4.25;1.95;;;;;;;;;;3581992;40;20041;-58
2021/07/18 07:26:03;;;;;;;3.08;1.25;;;;;;;;;;3582905;40;20134;-58
2021/07/18 07:28:28;;;;;;;3.85;1.90;;;;;;;;;;3584110;40;20086;-58
2021/07/18 07:30:54;;;;;;;3.90;1.75;;;;;;;;;;3582982;40;20045;-58
2021/07/18 07:33:19;;;;;;;3.90;1.58;;;;;;;;;;3584068;40;20045;-59
2021/07/18 07:35:46;;;;;;;5.30;1.60;;;;;;;;;;3583712;40;20129;-59
2021/07/18 07:38:12;;;;;;;2.65;1.52;;;;;;;;;;3583513;40;20036;-59
2021/07/18 07:40:37;;;;;;;4.18;1.60;;;;;;;;;;3581899;40;20055;-58
2021/07/18 07:43:03;;;;;;;4.28;1.52;;;;;;;;;;3582465;40;20038;-58
2021/07/18 07:45:29;;;;;;;4.55;1.70;;;;;;;;;;3585057;40;20029;-56
2021/07/18 07:47:54;;;;;;;4.90;1.45;;;;;;;;;;3583794;40;20396;-58
2021/07/18 07:50:20;;;;;;;4.53;1.65;;;;;;;;;;3584043;40;20044;-58
2021/07/18 07:52:45;;;;;;;12.73;2.03;;;;;;;;;;3582829;40;20045;-58
2021/07/18 07:55:11;;;;;;;3.78;1.42;;;;;;;;;;3582955;40;20483;-58
2021/07/18 07:57:37;;;;;;;2.97;1.42;;;;;;;;;;3583719;40;20044;-58
2021/07/18 08:00:07;;;;;;;3.38;1.48;;;;;;;;;;3585382;40;20039;-58
2021/07/18 08:02:33;;;;;;;2.90;1.17;;;;;;;;;;3581865;40;20052;-58
2021/07/18 08:04:58;;;;;;;3.17;1.30;;;;;;;;;;3580711;40;20032;-58
2021/07/18 08:07:24;;;;;;;4.25;1.70;;;;;;;;;;3583487;40;20106;-58
2021/07/18 08:09:49;;;;;;;2.83;1.42;;;;;;;;;;3581143;40;20035;-58
2021/07/18 08:12:14;;;;;;;5.82;1.58;;;;;;;;;;3584320;40;20051;-58
2021/07/18 08:14:40;;;;;;;4.10;1.52;;;;;;;;;;3582398;40;20029;-58
2021/07/18 08:17:05;;;;;;;3.03;1.60;;;;;;;;;;3584238;40;20249;-58
2021/07/18 08:19:31;;;;;;;4.07;1.70;;;;;;;;;;3583709;40;20518;-57
2021/07/18 08:21:57;;;;;;;4.68;1.67;;;;;;;;;;3583985;40;20052;-58
2021/07/18 08:24:22;;;;;;;3.17;1.50;;;;;;;;;;3572485;40;20142;-58
2021/07/18 08:26:47;;;;;;;4.45;1.65;;;;;;;;;;3582138;40;20033;-58
2021/07/18 08:29:13;;;;;;;3.70;1.45;;;;;;;;;;3583932;40;20053;-57
2021/07/18 08:31:38;;;;;;;4.10;1.30;;;;;;;;;;3584801;40;20048;-58
2021/07/18 08:34:06;;;;;;;4.55;1.30;;;;;;;;;;3584597;40;20032;-58
2021/07/18 08:36:31;;;;;;;4.68;1.80;;;;;;;;;;3582790;40;20478;-58
2021/07/18 08:38:57;;;;;;;2.80;1.30;;;;;;;;;;3582905;40;20044;-58
2021/07/18 08:41:22;;;;;;;5.85;1.65;;;;;;;;;;3576433;40;20466;-58
2021/07/18 08:43:50;;;;;;;3.40;1.45;;;;;;;;;;3582546;40;20356;-58
2021/07/18 08:46:18;;;;;;;4.00;1.80;;;;;;;;;;3582746;40;20705;-58
2021/07/18 08:48:44;;;;;;;6.72;1.58;;;;;;;;;;3580458;40;20044;-58
2021/07/18 08:51:13;;;;;;;3.17;1.40;;;;;;;;;;3581729;40;20033;-58
2021/07/18 08:53:39;;;;;;;2.75;1.23;;;;;;;;;;3572194;40;20118;-58
2021/07/18 08:56:05;;;;;;;3.90;1.63;;;;;;;;;;3584406;40;20045;-58
2021/07/18 08:58:31;;;;;;;3.78;1.60;;;;;;;;;;3581012;40;20113;-59
2021/07/18 09:00:56;;;;;;;4.63;1.77;;;;;;;;;;3581984;40;20032;-59
2021/07/18 09:03:22;;;;;;;2.88;1.27;;;;;;;;;;3583702;40;20049;-59
2021/07/18 09:05:52;;;;;;;7.25;1.90;;;;;;;;;;3583346;40;20021;-59
2021/07/18 09:08:23;;;;;;;6.28;2.00;;;;;;;;;;3581017;40;20053;-59
2021/07/18 09:10:50;;;;;;;3.47;1.50;;;;;;;;;;3579848;40;20024;-59
2021/07/18 09:13:19;;;;;;;4.53;1.60;;;;;;;;;;3573777;40;20296;-59
2021/07/18 09:15:44;;;;;;;3.77;2.00;;;;;;;;;;3572696;40;20365;-59
2021/07/18 09:18:21;;;;;;;8.45;1.55;;;;;;;;;;3579876;40;20338;-59
2021/07/18 09:20:52;;;;;;;4.10;1.65;;;;;;;;;;3580375;40;20047;-59
2021/07/18 09:23:30;;;;;;;2.08;1.08;;;;;;;;;;3583432;40;20157;-59
2021/07/18 09:26:16;;;;;;;4.15;1.60;;;;;;;;;;3582132;40;20040;-59
2021/07/18 09:28:42;;;;;;;4.07;1.65;;;;;;;;;;3583090;40;20093;-59
2021/07/18 09:31:27;;;;;;;4.97;1.60;;;;;;;;;;3582000;40;20443;-59
2021/07/18 09:34:16;;;;;;;7.82;1.70;;;;;;;;;;3582610;40;20061;-59
2021/07/18 09:36:42;;;;;;;2.58;1.38;;;;;;;;;;3582612;40;20048;-59
2021/07/18 09:39:12;;;;;;;7.70;1.77;;;;;;;;;;3583292;40;20044;-59
2021/07/18 09:41:38;;;;;;;4.22;1.40;;;;;;;;;;3582593;40;20044;-60
2021/07/18 09:44:04;;;;;;;9.25;1.50;;;;;;;;;;3576839;40;20037;-60
2021/07/18 09:46:33;;;;;;;3.10;1.30;;;;;;;;;;3583902;40;20047;-59
2021/07/18 09:49:03;;;;;;;3.97;1.60;;;;;;;;;;3584963;40;20028;-60
2021/07/18 09:51:33;;;;;;;4.53;1.50;;;;;;;;;;3582139;40;20032;-60
2021/07/18 09:54:08;;;;;;;3.63;1.60;;;;;;;;;;3582568;40;20033;-60
2021/07/18 09:56:34;;;;;;;5.68;1.50;;;;;;;;;;3582787;40;20041;-61
2021/07/18 09:58:59;;;;;;;2.78;1.30;;;;;;;;;;3582462;40;20085;-60
2021/07/18 10:01:25;;;;;;;3.53;1.52;;;;;;;;;;3583513;40;20286;-60
2021/07/18 10:03:54;;;;;;;3.33;1.50;;;;;;;;;;3582321;40;20048;-60
2021/07/18 10:06:23;;;;;;;5.00;1.70;;;;;;;;;;3578359;40;20043;-60
2021/07/18 10:08:56;;;;;;;3.30;1.60;;;;;;;;;;3582477;40;20109;-60
2021/07/18 10:11:29;;;;;;;3.65;1.85;;;;;;;;;;3581887;40;20057;-60
2021/07/18 10:13:56;;;;;;;4.47;1.90;;;;;;;;;;3582576;40;20559;-59
2021/07/18 10:16:24;;;;;;;3.33;1.52;;;;;;;;;;3579737;40;20146;-59
2021/07/18 10:18:51;;;;;;;6.50;1.58;;;;;;;;;;3580854;40;20080;-59
2021/07/18 10:21:22;;;;;;;4.97;1.60;;;;;;;;;;3584315;40;20042;-61
2021/07/18 10:23:52;;;;;;;3.47;1.75;;;;;;;;;;3580877;40;20434;-59
2021/07/18 10:26:20;;;;;;;3.72;1.60;;;;;;;;;;3581612;40;20033;-59
2021/07/18 10:28:47;;;;;;;3.25;1.83;;;;;;;;;;3581206;40;20028;-60
2021/07/18 10:31:23;;;;;;;5.53;2.00;;;;;;;;;;3581893;40;20592;-60
2021/07/18 10:33:49;;;;;;;7.88;2.10;;;;;;;;;;3583628;40;20044;-60
2021/07/18 10:36:18;;;;;;;3.65;1.83;;;;;;;;;;3581248;40;20141;-59
2021/07/18 10:38:43;;;;;;;4.00;1.50;;;;;;;;;;3574097;40;20047;-60
2021/07/18 10:41:09;;;;;;;3.35;1.50;;;;;;;;;;3583469;40;20040;-59
2021/07/18 10:43:40;;;;;;;5.38;2.00;;;;;;;;;;3582190;40;20056;-59
2021/07/18 10:46:12;;;;;;;7.57;1.75;;;;;;;;;;3583000;40;20033;-60
2021/07/18 10:48:47;;;;;;;3.92;1.95;;;;;;;;;;3579560;40;20029;-60
2021/07/18 10:51:14;;;;;;;5.68;1.92;;;;;;;;;;3583812;40;20528;-59
2021/07/18 10:53:39;;;;;;;3.08;1.50;;;;;;;;;;3581940;40;20037;-60
2021/07/18 10:56:06;;;;;;;3.35;1.60;;;;;;;;;;3585710;40;20056;-59
2021/07/18 10:58:38;;;;;;;4.13;2.03;;;;;;;;;;3583037;40;20125;-60
2021/07/18 11:01:24;;;;;;;4.07;1.40;;;;;;;;;;3582284;40;20053;-61
2021/07/18 11:03:50;;;;;;;3.78;1.50;;;;;;;;;;3578820;40;20440;-60
2021/07/18 11:06:25;;;;;;;3.28;1.48;;;;;;;;;;3582280;40;20048;-61
2021/07/18 11:09:05;;;;;;;5.47;2.05;;;;;;;;;;3584445;40;20044;-60
2021/07/18 11:11:57;;;;;;;3.53;1.63;;;;;;;;;;3582162;40;20426;-60
2021/07/18 11:14:36;;;;;;;4.45;1.77;;;;;;;;;;3579563;40;20302;-60
2021/07/18 11:17:08;;;;;;;3.60;1.58;;;;;;;;;;3584332;40;20056;-60
2021/07/18 11:19:39;;;;;;;4.47;1.90;;;;;;;;;;3585339;40;20036;-60
2021/07/18 11:22:06;;;;;;;4.53;1.50;;;;;;;;;;3585161;40;20057;-60
2021/07/18 11:24:55;;;;;;;5.47;1.88;;;;;;;;;;3584515;40;20081;-60
2021/07/18 11:27:24;;;;;;;2.95;1.63;;;;;;;;;;3582190;40;20040;-59
2021/07/18 11:29:49;;;;;;;4.35;1.48;;;;;;;;;;3581558;40;20068;-59
2021/07/18 11:32:21;;;;;;;4.40;2.25;;;;;;;;;;3579881;40;20372;-60
2021/07/18 11:34:48;;;;;;;4.40;2.33;;;;;;;;;;3583324;40;20037;-59
2021/07/18 11:37:14;;;;;;;6.72;2.70;;;;;;;;;;3581716;40;20033;-59
2021/07/18 11:39:44;;;;;;;3.97;2.80;;;;;;;;;;3583564;40;20080;-59
2021/07/18 11:42:11;;;;;;;;;;;;;;;;;;3582124;40;20039;-59
2021/07/18 11:44:40;;;;;;;3.42;2.10;;;;;;;;;;3583310;40;20274;-59
2021/07/18 11:47:09;;;;;;;12.88;3.15;;;;;;;;;;3583925;40;20037;-58
2021/07/18 11:49:37;;;;;;;4.57;2.70;;;;;;;;;;3583120;40;20036;-59
2021/07/18 11:52:05;;;;;;;4.85;2.78;;;;;;;;;;3583616;40;20043;-58
2021/07/18 11:54:31;;;;;;;7.15;2.47;;;;;;;;;;3580730;40;20536;-58
2021/07/18 11:56:57;;;;;;;5.28;4.18;;;;;;;;;;3581648;40;20671;-60
2021/07/18 11:59:25;;;;;;;3.58;2.60;;;;;;;;;;3581703;40;20059;-59
2021/07/18 12:01:52;;;;;;;4.65;3.35;;;;;;;;;;3583354;40;20033;-59
2021/07/18 12:04:23;;;;;;;4.22;2.90;;;;;;;;;;3583541;40;20081;-58
2021/07/18 12:06:55;;;;;;;5.30;3.10;;;;;;;;;;3582604;40;20372;-59
2021/07/18 12:09:23;;;;;;;5.60;2.80;;;;;;;;;;3582814;40;20047;-58
2021/07/18 12:11:51;;;;;;;3.78;3.13;;;;;;;;;;3583817;40;20028;-59
2021/07/18 12:14:18;;;;;;;4.80;2.88;;;;;;;;;;3582339;40;20384;-59
2021/07/18 12:16:45;;;;;;;4.03;2.97;;;;;;;;;;3582462;40;20036;-59
2021/07/18 12:19:12;;;;;;;5.45;3.28;;;;;;;;;;3581823;40;20060;-60
2021/07/18 12:21:41;;;;;;;5.13;3.75;;;;;;;;;;3584884;40;20032;-59
2021/07/18 12:24:30;;;;;;;5.22;3.47;;;;;;;;;;3583257;40;20040;-59
2021/07/18 12:27:00;;;;;;;3.45;2.80;;;;;;;;;;3581469;40;20268;-59
2021/07/18 12:29:31;;;;;;;5.88;3.90;;;;;;;;;;3583277;40;20155;-59
2021/07/18 12:31:57;;;;;;;4.10;2.83;;;;;;;;;;3586397;40;20822;-59
2021/07/18 12:34:28;;;;;;;5.35;3.45;;;;;;;;;;3585121;40;20033;-59
2021/07/18 12:37:09;;;;;;;4.18;2.97;;;;;;;;;;3580769;40;20032;-59
2021/07/18 12:39:43;;;;;;;5.60;2.60;;;;;;;;;;3581870;40;20040;-60
2021/07/18 12:42:19;;;;;;;4.43;3.70;;;;;;;;;;3583459;40;20048;-58
2021/07/18 12:44:53;;;;;;;3.90;3.03;;;;;;;;;;3582625;40;20283;-60
2021/07/18 12:47:33;;;;;;;5.20;3.85;;;;;;;;;;3583417;40;20041;-60
2021/07/18 12:50:11;;;;;;;;;;;;;;;;;;3583104;40;20049;-60
2021/07/18 12:52:50;;;;;;;4.15;3.40;;;;;;;;;;3582975;40;20105;-60
2021/07/18 12:55:18;;;;;;;5.40;2.20;;;;;;;;;;3583577;40;20644;-57
2021/07/18 12:57:44;;;;;;;4.28;3.50;;;;;;;;;;3581964;40;20045;-59
2021/07/18 13:00:12;;;;;;;4.43;3.10;;;;;;;;;;3582148;40;20044;-57
2021/07/18 13:02:37;;;;;;;3.67;2.72;;;;;;;;;;3582134;40;20044;-58
2021/07/18 13:05:05;;;;;;;4.03;2.78;;;;;;;;;;3576768;40;20104;-58
2021/07/18 13:07:31;;;;;;;4.15;3.75;;;;;;;;;;3582464;40;20067;-58
2021/07/18 13:10:12;;;;;;;3.85;3.08;;;;;;;;;;3582429;40;20037;-58
2021/07/18 13:12:39;;;;;;;3.85;3.35;;;;;;;;;;3573498;40;20482;-58
2021/07/18 13:15:12;;;;;;;4.18;3.53;;;;;;;;;;3583119;40;20084;-58
2021/07/18 13:17:57;;;;;;;7.10;5.07;;;;;;;;;;3583118;40;20123;-58
2021/07/18 13:20:25;;;;;;;3.75;2.80;;;;;;;;;;3583252;40;20083;-58
2021/07/18 13:22:52;;;;;;;4.80;3.28;;;;;;;;;;3580868;40;20049;-58
2021/07/18 13:25:20;;;;;;;4.90;3.40;;;;;;;;;;3583738;40;20044;-59
2021/07/18 13:27:46;;;;;;;3.70;2.70;;;;;;;;;;3583892;40;20051;-58
2021/07/18 13:30:12;;;;;;;3.70;2.75;;;;;;;;;;3577094;40;20037;-58
2021/07/18 13:32:44;;;;;;;3.90;2.83;;;;;;;;;;3582178;40;20100;-58
2021/07/18 13:35:12;;;;;;;6.45;2.58;;;;;;;;;;3583192;40;20049;-58
2021/07/18 13:37:59;;;;;;;4.07;2.70;;;;;;;;;;3582569;40;20037;-58
2021/07/18 13:40:27;;;;;;;3.90;3.30;;;;;;;;;;3581845;40;20128;-58
2021/07/18 13:43:21;;;;;;;4.78;3.10;;;;;;;;;;3582391;40;20566;-58
2021/07/18 13:46:02;;;;;;;4.68;3.10;;;;;;;;;;3580347;40;20040;-58
2021/07/18 13:48:36;;;;;;;4.00;2.97;;;;;;;;;;3583464;40;20108;-58
2021/07/18 13:51:05;;;;;;;3.83;3.10;;;;;;;;;;3584633;40;20037;-58
2021/07/18 13:53:31;;;;;;;4.53;4.13;;;;;;;;;;3574228;40;20164;-58
2021/07/18 13:55:57;;;;;;;4.53;3.95;;;;;;;;;;3581615;40;20260;-58
2021/07/18 13:58:25;;;;;;;14.57;4.40;;;;;;;;;;3581433;40;20596;-58
2021/07/18 14:00:51;;;;;;;3.78;2.40;;;;;;;;;;3582058;40;20048;-58
2021/07/18 14:03:16;;;;;;;4.13;3.13;;;;;;;;;;3582590;40;20037;-58
2021/07/18 14:05:42;;;;;;;5.53;3.60;;;;;;;;;;3580625;40;20051;-58
2021/07/18 14:08:11;;;;;;;5.18;2.80;;;;;;;;;;3580390;40;20036;-58
2021/07/18 14:10:38;;;;;;;5.93;3.60;;;;;;;;;;3582186;40;20048;-58
2021/07/18 14:13:04;;;;;;;5.28;3.53;;;;;;;;;;3581937;40;20025;-59
2021/07/18 14:15:30;;;;;;;3.90;3.00;;;;;;;;;;3583152;40;20048;-58
2021/07/18 14:17:55;;;;;;;4.03;3.20;;;;;;;;;;3583298;40;20032;-59
2021/07/18 14:20:26;;;;;;;5.22;2.83;;;;;;;;;;3582860;40;20133;-58
2021/07/18 14:22:54;;;;;;;4.72;4.07;;;;;;;;;;3584660;39;20543;-58
2021/07/18 14:26:05;;;;;;;6.68;3.47;;;;;;;;;;3585573;40;20036;-59
2021/07/18 14:28:30;;;;;;;6.05;3.67;;;;;;;;;;3580758;40;20040;-60
2021/07/18 14:30:56;;;;;;;4.15;2.67;;;;;;;;;;3582877;40;20419;-60
2021/07/18 14:33:21;;;;;;;4.70;2.67;;;;;;;;;;3582881;40;20374;-58
2021/07/18 14:35:47;;;;;;;4.07;2.58;;;;;;;;;;3583724;40;20051;-59
2021/07/18 14:38:13;;;;;;;4.05;2.90;;;;;;;;;;3583305;40;20157;-59
2021/07/18 14:40:39;;;;;;;4.35;2.85;;;;;;;;;;3581518;40;20141;-59
2021/07/18 14:43:06;;;;;;;4.47;2.75;;;;;;;;;;3583272;40;20457;-59
2021/07/18 14:45:33;;;;;;;4.18;3.28;;;;;;;;;;3584021;40;20028;-60